Time;durP1;ratioP1;P1;durP2;ratioP2;P2;SDS_P1;SDS_P2;PMS_P1;PMS_P2;Temp;Humidity;BMP_temperature;BMP_pressure;BME280_temperature;BME280_humidity;BME280_pressure;Samples;Min_cycle;Max_cycle;Signal;HPM_P1;HPM_P2
2021/10/10 00:02:25;;;;;;;25.02;17.27;;;8.20;99.90;;;;;;5051976;28;20442;-79
2021/10/10 00:04:50;;;;;;;31.92;19.73;;;8.20;99.90;;;;;;5051714;28;20037;-80
2021/10/10 00:07:16;;;;;;;34.72;19.40;;;8.10;99.90;;;;;;5054431;28;20107;-78
2021/10/10 00:09:41;;;;;;;34.50;21.25;;;8.10;99.90;;;;;;5056313;28;20546;-78
2021/10/10 00:12:07;;;;;;;35.88;19.30;;;8.10;99.90;;;;;;5055821;28;20049;-79
2021/10/10 00:14:33;;;;;;;32.90;19.55;;;8.10;99.90;;;;;;5060308;28;20071;-78
2021/10/10 00:16:59;;;;;;;28.45;18.92;;;8.00;99.90;;;;;;5060098;28;20024;-78
2021/10/10 00:19:24;;;;;;;29.08;19.52;;;8.00;99.90;;;;;;5055546;28;20049;-78
2021/10/10 00:21:50;;;;;;;26.58;19.13;;;8.00;99.90;;;;;;5069643;28;20060;-78
2021/10/10 00:24:15;;;;;;;36.90;22.15;;;8.00;99.90;;;;;;5056151;28;20021;-77
2021/10/10 00:26:41;;;;;;;33.35;22.08;;;7.90;99.90;;;;;;5055996;28;20025;-76
2021/10/10 00:29:07;;;;;;;32.35;19.38;;;7.90;99.90;;;;;;5060451;28;20013;-77
2021/10/10 00:31:32;;;;;;;22.20;15.00;;;8.00;99.90;;;;;;5056867;28;20025;-77
2021/10/10 00:33:58;;;;;;;18.33;9.82;;;7.90;99.90;;;;;;5055774;28;20174;-79
2021/10/10 00:36:23;;;;;;;105.75;9.90;;;7.90;99.90;;;;;;5064114;28;20143;-77
2021/10/10 00:38:49;;;;;;;13.48;9.30;;;7.80;99.90;;;;;;5060345;28;20036;-77
2021/10/10 00:41:17;;;;;;;10.05;8.80;;;7.70;99.90;;;;;;5054813;28;20473;-76
2021/10/10 00:43:43;;;;;;;13.40;10.80;;;7.60;99.90;;;;;;5054973;28;20110;-76
2021/10/10 00:46:09;;;;;;;14.35;11.15;;;7.60;99.90;;;;;;5054739;28;20048;-79
2021/10/10 00:48:34;;;;;;;16.15;12.90;;;7.50;99.90;;;;;;5054542;28;20082;-79
2021/10/10 00:51:00;;;;;;;15.85;11.20;;;7.50;99.90;;;;;;5054857;28;20029;-77
2021/10/10 00:53:25;;;;;;;22.85;12.85;;;7.50;99.90;;;;;;5055010;28;20025;-78
2021/10/10 00:55:54;;;;;;;19.30;13.65;;;7.50;99.90;;;;;;5054418;28;20396;-78
2021/10/10 00:58:25;;;;;;;16.48;13.05;;;7.50;99.90;;;;;;5055707;28;20427;-77
2021/10/10 01:00:52;;;;;;;18.20;13.15;;;7.40;99.90;;;;;;5055220;28;20043;-77
2021/10/10 01:03:19;;;;;;;18.48;13.20;;;7.50;99.90;;;;;;5054153;28;20473;-78
2021/10/10 01:05:45;;;;;;;18.30;11.80;;;7.50;99.90;;;;;;5055074;28;20071;-79
2021/10/10 01:08:15;;;;;;;16.20;11.75;;;7.50;99.90;;;;;;5054927;28;20021;-78
2021/10/10 01:10:41;;;;;;;13.75;11.15;;;7.40;99.90;;;;;;5054351;28;20029;-77
2021/10/10 01:13:07;;;;;;;15.32;12.00;;;7.50;99.90;;;;;;5054831;28;20028;-78
2021/10/10 01:15:33;;;;;;;16.02;13.27;;;7.40;99.90;;;;;;5054840;28;20124;-78
2021/10/10 01:17:58;;;;;;;15.43;12.25;;;7.40;99.90;;;;;;5053610;28;20032;-78
2021/10/10 01:20:27;;;;;;;14.30;11.80;;;7.40;99.90;;;;;;5054178;28;20397;-79
2021/10/10 01:22:53;;;;;;;10.43;9.35;;;7.40;99.90;;;;;;5054059;28;20029;-77
2021/10/10 01:25:19;;;;;;;10.18;8.73;;;7.40;99.90;;;;;;5054700;28;20024;-76
2021/10/10 01:27:44;;;;;;;9.20;8.32;;;7.30;99.90;;;;;;5054096;28;20029;-77
2021/10/10 01:30:10;;;;;;;9.15;8.35;;;7.30;99.90;;;;;;5054119;28;20129;-78
2021/10/10 01:32:36;;;;;;;9.32;8.43;;;7.20;99.90;;;;;;5054326;28;20104;-78
2021/10/10 01:35:02;;;;;;;11.38;8.77;;;7.20;99.90;;;;;;5054220;28;20120;-80
2021/10/10 01:37:27;;;;;;;10.32;9.23;;;7.10;99.90;;;;;;5054073;28;20082;-79
2021/10/10 01:39:53;;;;;;;10.25;8.80;;;7.10;99.90;;;;;;5055229;28;20392;-77
2021/10/10 01:42:18;;;;;;;10.70;9.43;;;7.10;99.90;;;;;;5053927;28;20078;-76
2021/10/10 01:44:44;;;;;;;9.82;8.93;;;7.10;99.90;;;;;;5053472;28;20024;-78
2021/10/10 01:47:10;;;;;;;9.80;8.80;;;7.10;99.90;;;;;;5053582;28;20112;-79
2021/10/10 01:49:38;;;;;;;9.55;8.65;;;7.10;99.90;;;;;;5054001;28;20414;-77
2021/10/10 01:52:05;;;;;;;9.40;8.60;;;7.10;99.90;;;;;;5053501;28;20039;-75
2021/10/10 01:54:31;;;;;;;14.45;10.20;;;7.00;99.90;;;;;;5056140;28;20025;-79
2021/10/10 01:56:57;;;;;;;11.38;9.77;;;7.10;99.90;;;;;;5053879;28;20442;-77
2021/10/10 01:59:22;;;;;;;11.35;9.73;;;7.10;99.90;;;;;;5053456;28;20017;-76
2021/10/10 02:01:48;;;;;;;11.63;10.43;;;7.00;99.90;;;;;;5065688;28;20161;-74
2021/10/10 02:04:13;;;;;;;10.77;9.77;;;7.00;99.90;;;;;;5055978;28;20044;-78
2021/10/10 02:06:39;;;;;;;14.23;12.25;;;7.00;99.90;;;;;;5053671;28;20063;-78
2021/10/10 02:09:07;;;;;;;12.40;10.55;;;7.00;99.90;;;;;;5053843;28;20103;-78
2021/10/10 02:11:33;;;;;;;12.10;10.52;;;7.00;99.90;;;;;;5053788;28;20475;-78
2021/10/10 02:13:59;;;;;;;12.20;10.90;;;7.00;99.90;;;;;;5053473;28;20029;-77
2021/10/10 02:16:27;;;;;;;12.35;10.68;;;7.00;99.90;;;;;;5053661;28;20021;-79
2021/10/10 02:18:53;;;;;;;10.30;9.30;;;7.00;99.90;;;;;;5053220;28;20455;-77
2021/10/10 02:21:19;;;;;;;9.02;8.00;;;7.00;99.90;;;;;;5067844;28;20055;-77
2021/10/10 02:23:44;;;;;;;9.40;8.57;;;7.00;99.90;;;;;;5052966;28;20839;-77
2021/10/10 02:26:10;;;;;;;7.13;6.53;;;6.90;99.90;;;;;;5052900;28;20037;-78
2021/10/10 02:28:35;;;;;;;5.90;5.45;;;6.90;99.90;;;;;;5052702;28;20083;-77
2021/10/10 02:31:01;;;;;;;7.32;6.80;;;6.90;99.90;;;;;;5053151;28;20568;-78
2021/10/10 02:33:26;;;;;;;6.30;5.80;;;6.90;99.90;;;;;;5052990;28;20078;-78
2021/10/10 02:35:52;;;;;;;5.90;5.50;;;6.90;99.90;;;;;;5053332;28;20029;-78
2021/10/10 02:38:18;;;;;;;6.22;5.72;;;6.80;99.90;;;;;;5052903;28;20423;-77
2021/10/10 02:40:44;;;;;;;19.83;7.53;;;6.80;99.90;;;;;;5052541;28;20033;-76
2021/10/10 02:43:09;;;;;;;12.90;7.80;;;6.70;99.90;;;;;;5057210;28;20036;-78
2021/10/10 02:45:36;;;;;;;8.32;7.50;;;6.70;99.90;;;;;;5052995;28;20032;-76
2021/10/10 02:48:02;;;;;;;10.75;9.18;;;6.60;99.90;;;;;;5052465;28;20162;-76
2021/10/10 02:50:28;;;;;;;14.23;8.88;;;6.60;99.90;;;;;;5052792;28;20104;-77
2021/10/10 02:52:55;;;;;;;12.07;9.50;;;6.50;99.90;;;;;;5056623;28;20055;-76
2021/10/10 02:55:21;;;;;;;9.50;8.50;;;6.50;99.90;;;;;;5066591;28;20032;-76
2021/10/10 02:57:46;;;;;;;10.30;9.30;;;6.60;99.90;;;;;;5052558;28;20107;-77
2021/10/10 03:00:12;;;;;;;10.43;9.32;;;6.60;99.90;;;;;;5053718;28;20583;-76
2021/10/10 03:02:37;;;;;;;11.98;9.25;;;6.50;99.90;;;;;;5065505;28;20431;-77
2021/10/10 03:05:03;;;;;;;13.60;10.98;;;6.60;99.90;;;;;;5052463;28;20021;-77
2021/10/10 03:07:29;;;;;;;14.90;11.32;;;6.50;99.90;;;;;;5052522;28;20028;-76
2021/10/10 03:09:54;;;;;;;18.88;12.82;;;6.50;99.90;;;;;;5052607;28;20021;-76
2021/10/10 03:12:20;;;;;;;12.05;10.48;;;6.50;99.90;;;;;;5068962;28;20488;-78
2021/10/10 03:14:46;;;;;;;11.55;9.73;;;6.50;99.90;;;;;;5063660;28;20028;-77
2021/10/10 03:17:11;;;;;;;13.52;8.77;;;6.50;99.90;;;;;;5052018;28;20021;-76
2021/10/10 03:19:37;;;;;;;8.82;7.60;;;6.50;99.90;;;;;;5052511;28;20104;-77
2021/10/10 03:22:02;;;;;;;9.50;7.38;;;6.50;99.90;;;;;;5052291;28;20439;-78
2021/10/10 03:24:28;;;;;;;14.10;6.72;;;6.40;99.90;;;;;;5051676;28;20099;-77
2021/10/10 03:26:53;;;;;;;7.35;6.63;;;6.30;99.90;;;;;;5051885;28;20036;-78
2021/10/10 03:29:19;;;;;;;9.50;6.10;;;6.30;99.90;;;;;;5052334;28;20032;-77
2021/10/10 03:31:44;;;;;;;8.95;6.82;;;6.30;99.90;;;;;;5052460;28;20029;-76
2021/10/10 03:34:10;;;;;;;7.85;7.00;;;6.20;99.90;;;;;;5052802;28;20393;-76
2021/10/10 03:36:36;;;;;;;9.50;7.22;;;6.20;99.90;;;;;;5052362;28;20373;-75
2021/10/10 03:39:01;;;;;;;30.15;7.88;;;6.20;99.90;;;;;;5052287;28;20032;-77
2021/10/10 03:41:27;;;;;;;9.10;7.75;;;6.10;99.90;;;;;;5051991;28;20029;-78
2021/10/10 03:43:52;;;;;;;11.75;7.40;;;6.10;99.90;;;;;;5052341;28;20021;-76
2021/10/10 03:46:18;;;;;;;7.72;7.03;;;6.10;99.90;;;;;;5052725;28;20090;-77
2021/10/10 03:48:43;;;;;;;8.82;8.05;;;6.10;99.90;;;;;;5051877;28;20028;-78
2021/10/10 03:51:09;;;;;;;7.55;6.95;;;6.10;99.90;;;;;;5051394;28;20021;-77
2021/10/10 03:56:18;;;;;;;8.35;7.50;;;6.00;99.90;;;;;;5052057;28;20031;-78
2021/10/10 03:58:44;;;;;;;11.20;8.95;;;6.00;99.90;;;;;;5051190;28;20017;-77
2021/10/10 04:01:09;;;;;;;11.10;8.55;;;6.10;99.90;;;;;;5051640;28;20041;-77
2021/10/10 04:03:37;;;;;;;9.98;9.00;;;6.00;99.90;;;;;;5051643;28;20018;-78
2021/10/10 04:06:03;;;;;;;8.95;7.90;;;6.10;99.90;;;;;;5051095;28;20436;-77
2021/10/10 04:08:29;;;;;;;9.63;8.70;;;6.00;99.90;;;;;;5051572;28;20079;-76
2021/10/10 04:10:55;;;;;;;26.15;9.05;;;6.00;99.90;;;;;;5056157;28;20056;-78
2021/10/10 04:13:21;;;;;;;8.05;7.28;;;6.00;99.90;;;;;;5060361;28;20044;-77
2021/10/10 04:15:46;;;;;;;9.40;7.78;;;6.00;99.90;;;;;;5051379;28;20105;-77
2021/10/10 04:18:12;;;;;;;10.57;8.90;;;6.00;99.90;;;;;;5051913;28;20028;-76
2021/10/10 04:20:37;;;;;;;8.10;7.40;;;5.90;99.90;;;;;;5051099;28;20079;-77
2021/10/10 04:23:03;;;;;;;7.47;6.85;;;5.90;99.90;;;;;;5051663;28;20104;-77
2021/10/10 04:25:29;;;;;;;7.53;6.93;;;5.90;99.90;;;;;;5052375;28;20032;-76
2021/10/10 04:27:54;;;;;;;8.18;7.47;;;5.90;99.90;;;;;;5056614;28;20116;-77
2021/10/10 04:30:20;;;;;;;10.65;7.82;;;5.90;99.90;;;;;;5072472;28;20057;-76
2021/10/10 04:32:46;;;;;;;10.32;7.63;;;5.80;99.90;;;;;;5054685;28;20017;-76
2021/10/10 04:35:12;;;;;;;18.92;7.95;;;5.80;99.90;;;;;;5051894;28;20117;-76
2021/10/10 04:37:38;;;;;;;9.82;8.77;;;5.80;99.90;;;;;;5051852;28;20033;-77
2021/10/10 04:40:05;;;;;;;9.63;8.48;;;5.80;99.90;;;;;;5051276;28;20051;-78
2021/10/10 04:42:36;;;;;;;19.13;7.90;;;5.80;99.90;;;;;;5052651;28;20040;-78
2021/10/10 04:45:03;;;;;;;29.63;8.25;;;5.80;99.90;;;;;;5051814;28;20033;-77
2021/10/10 04:47:29;;;;;;;21.85;7.00;;;5.80;99.90;;;;;;5051395;28;20112;-78
2021/10/10 04:49:54;;;;;;;27.27;7.50;;;5.80;99.90;;;;;;5052370;28;20432;-76
2021/10/10 04:52:20;;;;;;;32.08;8.45;;;5.70;99.90;;;;;;5052653;28;20376;-77
2021/10/10 04:54:47;;;;;;;25.33;7.55;;;5.70;99.90;;;;;;5054244;28;20031;-77
2021/10/10 04:57:14;;;;;;;32.53;8.23;;;5.70;99.90;;;;;;5054805;28;20025;-77
2021/10/10 04:59:40;;;;;;;15.63;8.85;;;5.80;99.90;;;;;;5054827;28;20672;-75
2021/10/10 05:02:05;;;;;;;24.85;8.02;;;5.80;99.90;;;;;;5054522;28;20029;-77
2021/10/10 05:04:31;;;;;;;11.25;8.30;;;5.80;99.90;;;;;;5056188;28;20476;-75
2021/10/10 05:06:56;;;;;;;20.45;7.68;;;5.80;99.90;;;;;;5056228;28;20031;-75
2021/10/10 05:09:22;;;;;;;17.42;7.05;;;5.80;99.90;;;;;;5057648;28;20112;-77
2021/10/10 05:11:47;;;;;;;17.63;7.30;;;5.70;99.90;;;;;;5054613;28;20095;-79
2021/10/10 05:14:13;;;;;;;18.42;7.72;;;5.80;99.90;;;;;;5054796;28;20104;-78
2021/10/10 05:16:39;;;;;;;10.65;7.47;;;5.70;99.90;;;;;;5054459;28;20473;-77
2021/10/10 05:19:04;;;;;;;23.88;8.40;;;5.70;99.90;;;;;;5058368;28;20104;-79
2021/10/10 05:21:30;;;;;;;19.80;7.95;;;5.80;99.90;;;;;;5055249;28;20558;-77
2021/10/10 05:23:55;;;;;;;23.00;9.75;;;5.80;99.90;;;;;;5054665;28;20025;-77
2021/10/10 05:26:21;;;;;;;27.33;10.90;;;5.80;99.90;;;;;;5054491;28;20393;-78
2021/10/10 05:28:46;;;;;;;16.35;9.88;;;5.80;99.90;;;;;;5054235;28;20465;-76
2021/10/10 05:31:12;;;;;;;17.52;10.40;;;5.80;99.90;;;;;;5053653;28;20056;-76
2021/10/10 05:33:37;;;;;;;31.35;11.27;;;5.90;99.90;;;;;;5054635;28;20029;-76
2021/10/10 05:36:03;;;;;;;30.85;11.77;;;5.90;99.90;;;;;;5053856;28;20021;-77
2021/10/10 05:38:29;;;;;;;23.15;10.88;;;5.90;99.90;;;;;;5062452;28;20498;-76
2021/10/10 05:40:54;;;;;;;46.05;10.43;;;5.90;99.90;;;;;;5059673;28;20033;-77
2021/10/10 05:43:20;;;;;;;13.63;9.30;;;5.90;99.90;;;;;;5053620;28;20079;-77
2021/10/10 05:45:45;;;;;;;12.02;10.32;;;5.90;99.90;;;;;;5054223;28;20064;-76
2021/10/10 05:48:11;;;;;;;23.52;12.10;;;6.00;99.90;;;;;;5053660;28;20056;-76
2021/10/10 05:50:36;;;;;;;19.52;13.88;;;6.00;99.90;;;;;;5053912;28;20024;-77
2021/10/10 05:53:07;;;;;;;21.85;12.63;;;6.10;99.90;;;;;;5053604;28;20025;-76
2021/10/10 05:55:34;;;;;;;17.98;13.50;;;6.10;99.90;;;;;;5054110;28;20025;-78
2021/10/10 05:58:03;;;;;;;18.40;13.20;;;6.20;99.90;;;;;;5053725;28;20025;-77
2021/10/10 06:00:29;;;;;;;15.50;12.93;;;6.20;99.90;;;;;;5053473;28;20103;-78
2021/10/10 06:02:54;;;;;;;27.35;14.50;;;6.20;99.90;;;;;;5053323;28;20101;-77
2021/10/10 06:05:26;;;;;;;15.80;12.60;;;6.30;99.90;;;;;;5052665;28;20110;-76
2021/10/10 06:07:51;;;;;;;15.88;12.88;;;6.30;99.90;;;;;;5053064;28;20526;-77
2021/10/10 06:10:17;;;;;;;14.93;13.20;;;6.40;99.90;;;;;;5053625;28;20029;-77
2021/10/10 06:12:43;;;;;;;18.13;13.80;;;6.40;99.90;;;;;;5058599;28;20036;-76
2021/10/10 06:15:09;;;;;;;21.08;15.15;;;6.40;99.90;;;;;;5054744;28;20079;-77
2021/10/10 06:17:36;;;;;;;19.67;14.80;;;6.50;99.90;;;;;;5047408;28;20462;-78
2021/10/10 06:20:04;;;;;;;26.23;16.45;;;6.50;99.90;;;;;;5032137;28;21241;-77
2021/10/10 06:22:30;;;;;;;21.10;14.82;;;6.70;99.90;;;;;;5036136;28;20139;-77
2021/10/10 06:24:55;;;;;;;21.08;15.52;;;6.70;99.90;;;;;;5034419;28;20029;-77
2021/10/10 06:27:21;;;;;;;29.65;18.98;;;6.80;99.90;;;;;;5019394;28;20029;-77
2021/10/10 06:29:47;;;;;;;32.50;18.05;;;6.80;99.90;;;;;;5033700;28;20044;-77
2021/10/10 06:32:14;;;;;;;38.75;17.58;;;6.90;99.90;;;;;;5034418;28;20079;-77
2021/10/10 06:34:40;;;;;;;31.67;18.38;;;7.00;99.90;;;;;;5034409;28;20034;-77
2021/10/10 06:37:06;;;;;;;62.22;17.48;;;7.00;99.90;;;;;;5034398;28;20029;-78
2021/10/10 06:39:34;;;;;;;28.50;14.20;;;7.10;99.90;;;;;;5036370;28;20033;-77
2021/10/10 06:42:00;;;;;;;41.30;13.70;;;7.30;99.90;;;;;;5035060;28;20104;-78
2021/10/10 06:44:26;;;;;;;26.67;14.05;;;7.20;99.90;;;;;;5036492;28;20048;-77
2021/10/10 06:46:51;;;;;;;44.70;14.88;;;7.20;99.90;;;;;;5036449;28;20045;-77
2021/10/10 06:49:17;;;;;;;25.48;14.63;;;7.20;99.90;;;;;;5041590;28;20025;-78
2021/10/10 06:51:42;;;;;;;27.70;14.95;;;7.20;99.90;;;;;;5036238;28;20017;-77
2021/10/10 06:54:08;;;;;;;47.58;15.43;;;7.20;99.90;;;;;;5046830;28;20025;-78
2021/10/10 06:56:34;;;;;;;49.80;15.23;;;7.30;99.90;;;;;;5051818;28;20112;-76
2021/10/10 06:59:00;;;;;;;44.85;13.27;;;7.30;99.90;;;;;;5051890;28;20033;-77
2021/10/10 07:01:26;;;;;;;31.60;14.27;;;7.40;99.90;;;;;;5047703;28;20033;-76
2021/10/10 07:03:52;;;;;;;22.38;13.45;;;7.50;99.90;;;;;;5051196;28;20043;-78
2021/10/10 07:06:18;;;;;;;26.77;14.48;;;7.50;99.90;;;;;;5051901;28;20029;-78
2021/10/10 07:08:43;;;;;;;18.65;15.10;;;7.60;99.90;;;;;;5050831;28;20017;-77
2021/10/10 07:11:09;;;;;;;20.30;14.75;;;7.60;99.90;;;;;;5053145;28;20049;-83
2021/10/10 07:13:34;;;;;;;19.40;15.90;;;7.70;99.90;;;;;;5050925;28;20540;-82
2021/10/10 07:16:00;;;;;;;14.90;13.40;;;7.80;99.90;;;;;;5048761;28;20090;-82
2021/10/10 07:18:28;;;;;;;17.20;14.80;;;7.80;99.90;;;;;;5054691;28;20042;-83
2021/10/10 07:25:59;;;;;;;16.58;14.00;;;8.10;99.90;;;;;;5053848;28;20024;-81
2021/10/10 07:28:25;;;;;;;14.15;12.43;;;8.20;99.90;;;;;;5055618;28;20021;-81
2021/10/10 07:30:51;;;;;;;14.98;13.38;;;8.30;99.90;;;;;;5053899;28;20033;-82
2021/10/10 07:33:17;;;;;;;18.95;13.25;;;8.40;99.90;;;;;;5051476;28;20017;-81
2021/10/10 07:35:44;;;;;;;14.82;13.13;;;8.50;99.90;;;;;;5057476;28;20021;-81
2021/10/10 07:38:09;;;;;;;15.23;13.25;;;8.60;99.90;;;;;;5054297;28;20453;-81
2021/10/10 07:40:35;;;;;;;15.77;12.88;;;8.70;99.90;;;;;;5055653;28;20029;-82
2021/10/10 07:43:01;;;;;;;15.77;13.57;;;8.80;99.90;;;;;;5054815;28;20043;-82
2021/10/10 07:45:26;;;;;;;16.35;13.48;;;8.90;99.90;;;;;;5053626;28;20113;-82
2021/10/10 07:47:52;;;;;;;16.92;14.90;;;9.00;99.90;;;;;;5053570;28;20022;-81
2021/10/10 07:50:20;;;;;;;20.88;16.05;;;9.10;99.90;;;;;;5046909;28;20075;-83
2021/10/10 07:52:47;;;;;;;17.83;15.77;;;9.20;99.90;;;;;;5053626;28;20017;-82
2021/10/10 07:55:13;;;;;;;17.23;14.88;;;9.30;99.90;;;;;;5053523;28;20060;-83
2021/10/10 07:57:39;;;;;;;18.48;16.50;;;9.40;99.90;;;;;;5053979;28;20021;-82
2021/10/10 08:00:06;;;;;;;19.85;15.05;;;9.50;99.90;;;;;;5054475;28;20235;-83
2021/10/10 08:02:33;;;;;;;24.83;18.52;;;9.60;99.90;;;;;;5046069;28;20441;-80
2021/10/10 08:04:58;;;;;;;21.95;17.55;;;9.70;99.90;;;;;;5051755;28;20032;-79
2021/10/10 08:07:24;;;;;;;19.23;16.77;;;9.70;99.90;;;;;;5052684;28;20108;-81
2021/10/10 08:09:50;;;;;;;22.73;18.45;;;9.80;99.90;;;;;;5053473;28;20147;-81
2021/10/10 08:12:18;;;;;;;27.15;17.48;;;9.80;99.90;;;;;;5050925;28;20087;-76
2021/10/10 08:14:44;;;;;;;16.73;15.02;;;9.90;99.90;;;;;;5046630;28;20037;-75
2021/10/10 08:17:09;;;;;;;18.90;15.15;;;9.90;99.90;;;;;;5048379;28;20021;-77
2021/10/10 08:19:35;;;;;;;24.27;16.55;;;9.80;99.90;;;;;;5050596;28;20024;-79
2021/10/10 08:22:00;;;;;;;22.98;17.75;;;9.80;99.90;;;;;;5050187;28;20048;-75
2021/10/10 08:24:29;;;;;;;22.52;18.60;;;9.80;99.90;;;;;;5051184;28;20075;-76
2021/10/10 08:26:54;;;;;;;22.42;18.42;;;9.80;99.90;;;;;;5050699;28;20052;-75
2021/10/10 08:29:20;;;;;;;25.02;19.13;;;9.80;99.90;;;;;;5021230;28;20496;-78
2021/10/10 08:31:45;;;;;;;28.60;19.65;;;9.80;99.90;;;;;;5051775;28;20021;-78
2021/10/10 08:34:11;;;;;;;26.77;19.35;;;9.90;99.90;;;;;;5054196;28;20021;-78
2021/10/10 08:36:36;;;;;;;23.52;18.40;;;10.00;99.90;;;;;;5054291;28;20013;-77
2021/10/10 08:39:02;;;;;;;28.60;20.08;;;10.10;99.90;;;;;;5053462;28;20086;-77
2021/10/10 08:41:34;;;;;;;29.60;21.33;;;10.30;99.90;;;;;;5053275;28;20025;-78
2021/10/10 08:44:02;;;;;;;28.23;20.70;;;10.40;99.90;;;;;;5051556;28;20021;-81
2021/10/10 08:46:32;;;;;;;28.08;21.40;;;10.50;99.90;;;;;;5053171;28;20082;-81
2021/10/10 08:48:58;;;;;;;31.00;22.02;;;10.60;99.90;;;;;;5036100;28;20021;-79
2021/10/10 08:51:35;;;;;;;35.55;22.27;;;10.70;99.90;;;;;;5053996;28;20040;-79
2021/10/10 08:54:01;;;;;;;34.83;22.58;;;11.40;99.90;;;;;;5050640;28;20028;-78
2021/10/10 08:56:27;;;;;;;36.08;23.75;;;10.80;99.90;;;;;;5052637;28;20107;-79
2021/10/10 08:58:53;;;;;;;39.53;25.95;;;10.80;99.90;;;;;;5053105;28;20021;-80
2021/10/10 09:01:27;;;;;;;40.72;24.92;;;10.80;99.90;;;;;;5052480;28;20025;-79
2021/10/10 09:03:56;;;;;;;31.90;22.33;;;10.80;99.90;;;;;;5050843;28;20025;-78
2021/10/10 09:06:22;;;;;;;37.33;24.92;;;10.80;99.90;;;;;;5052526;28;20029;-79
2021/10/10 09:08:48;;;;;;;35.67;26.08;;;10.80;99.90;;;;;;5051681;28;20028;-80
2021/10/10 09:11:14;;;;;;;39.95;26.00;;;10.70;99.90;;;;;;5050978;28;20045;-79
2021/10/10 09:13:41;;;;;;;42.63;28.73;;;10.60;99.90;;;;;;5053303;28;20052;-78
2021/10/10 09:16:08;;;;;;;49.08;29.02;;;10.60;99.90;;;;;;5050077;28;20053;-79
2021/10/10 09:18:43;;;;;;;44.25;27.52;;;10.60;99.90;;;;;;5053502;28;20021;-79
2021/10/10 09:21:34;;;;;;;44.83;29.50;;;10.70;99.90;;;;;;5046274;28;20048;-79
2021/10/10 09:24:00;;;;;;;43.75;28.45;;;10.80;99.90;;;;;;5050964;28;20029;-79
2021/10/10 09:26:25;;;;;;;45.38;29.65;;;10.90;99.90;;;;;;5053220;28;20099;-79
2021/10/10 09:28:51;;;;;;;47.80;30.98;;;11.00;99.90;;;;;;5051551;28;20025;-79
2021/10/10 09:31:17;;;;;;;45.63;30.63;;;11.20;99.90;;;;;;5052182;28;20481;-80
2021/10/10 09:33:50;;;;;;;43.63;29.60;;;11.40;99.90;;;;;;5052459;28;20021;-80
2021/10/10 09:36:23;;;;;;;54.08;31.60;;;11.70;99.90;;;;;;5050927;28;20032;-80
2021/10/10 09:39:13;;;;;;;46.20;30.90;;;12.00;99.90;;;;;;5052353;28;20025;-81
2021/10/10 09:41:44;;;;;;;43.13;29.08;;;12.20;99.90;;;;;;5052442;28;20048;-80
2021/10/10 09:44:19;;;;;;;44.47;29.50;;;12.30;99.90;;;;;;5052644;28;20021;-79
2021/10/10 09:46:47;;;;;;;40.03;26.50;;;12.30;99.90;;;;;;5051987;28;20041;-81
2021/10/10 09:49:30;;;;;;;43.33;28.05;;;12.30;99.90;;;;;;5050850;28;20036;-79
2021/10/10 09:52:10;;;;;;;42.05;27.92;;;12.30;99.90;;;;;;5050579;28;20108;-79
2021/10/10 09:54:54;;;;;;;43.50;29.08;;;12.20;99.90;;;;;;5051720;28;20033;-80
2021/10/10 09:57:21;;;;;;;43.65;29.88;;;12.30;99.90;;;;;;5052686;28;20040;-79
2021/10/10 09:59:47;;;;;;;48.03;31.20;;;12.30;99.90;;;;;;5052263;28;20073;-80
2021/10/10 10:02:13;;;;;;;54.22;34.33;;;12.40;99.90;;;;;;5052954;28;20029;-81
2021/10/10 10:04:49;;;;;;;51.75;31.98;;;12.40;99.90;;;;;;5051740;28;20021;-80
2021/10/10 10:07:20;;;;;;;45.08;28.63;;;12.50;99.90;;;;;;5032944;28;20052;-79
2021/10/10 10:09:55;;;;;;;;;;;12.50;99.90;;;;;;5051955;28;20021;-80
2021/10/10 10:12:24;;;;;;;59.08;33.55;;;12.70;99.90;;;;;;5049916;28;19935;-80
2021/10/10 10:14:52;;;;;;;57.05;36.10;;;12.70;99.90;;;;;;5053459;28;20036;-79
2021/10/10 10:17:19;;;;;;;57.40;36.85;;;12.80;99.90;;;;;;5052730;28;20029;-80
2021/10/10 10:19:46;;;;;;;61.83;36.03;;;12.90;99.90;;;;;;5050595;28;20036;-80
2021/10/10 10:22:13;;;;;;;60.20;36.92;;;13.00;99.90;;;;;;5048132;28;20036;-78
2021/10/10 10:24:44;;;;;;;63.17;37.88;;;13.10;99.90;;;;;;5044587;28;20025;-79
2021/10/10 10:27:11;;;;;;;67.00;37.83;;;13.20;99.90;;;;;;5051744;28;20231;-81
2021/10/10 10:29:38;;;;;;;69.57;38.40;;;13.40;99.90;;;;;;5035349;28;20066;-79
2021/10/10 10:32:10;;;;;;;68.00;41.72;;;13.50;99.90;;;;;;5050637;28;20469;-79
2021/10/10 10:34:35;;;;;;;63.92;37.97;;;13.60;99.90;;;;;;5051537;28;20095;-79
2021/10/10 10:37:06;;;;;;;62.20;37.85;;;13.60;99.90;;;;;;5051507;28;20064;-78
2021/10/10 10:39:37;;;;;;;62.25;39.00;;;13.70;99.90;;;;;;5051260;28;20045;-79
2021/10/10 10:42:08;;;;;;;75.55;43.83;;;13.80;99.90;;;;;;5049143;28;20039;-81
2021/10/10 10:44:51;;;;;;;78.90;43.45;;;13.90;99.90;;;;;;5050618;28;20029;-80
2021/10/10 10:47:17;;;;;;;67.18;39.45;;;14.00;99.90;;;;;;5051375;28;20111;-80
2021/10/10 10:50:00;;;;;;;80.72;43.67;;;14.10;99.90;;;;;;5050721;28;20038;-78
2021/10/10 10:52:38;;;;;;;73.80;42.88;;;14.20;99.90;;;;;;5052172;28;20025;-79
2021/10/10 10:55:27;;;;;;;72.38;41.60;;;14.30;99.90;;;;;;5050894;28;20028;-81
2021/10/10 10:58:05;;;;;;;72.60;41.53;;;14.40;99.90;;;;;;5051711;28;20032;-81
2021/10/10 11:00:34;;;;;;;77.30;41.88;;;14.50;99.90;;;;;;5052756;28;20143;-81
2021/10/10 11:03:01;;;;;;;73.05;42.42;;;14.70;99.90;;;;;;5053109;28;20024;-80
2021/10/10 11:05:46;;;;;;;74.65;41.50;;;14.80;99.90;;;;;;5053021;28;20441;-78
2021/10/10 11:08:17;;;;;;;69.93;40.28;;;14.90;99.90;;;;;;5050583;28;20103;-80
2021/10/10 11:11:08;;;;;;;74.35;42.00;;;15.00;99.90;;;;;;5051961;28;20020;-78
2021/10/10 11:13:33;;;;;;;72.43;40.60;;;15.00;99.90;;;;;;5050117;28;20033;-79
2021/10/10 11:16:07;;;;;;;76.28;41.75;;;15.10;99.90;;;;;;5051263;28;20086;-79
2021/10/10 11:18:36;;;;;;;74.32;41.53;;;15.10;99.90;;;;;;5047524;28;20024;-80
2021/10/10 11:21:09;;;;;;;67.80;41.17;;;15.10;99.90;;;;;;5052248;28;20041;-80
2021/10/10 11:23:36;;;;;;;71.72;39.53;;;15.00;99.90;;;;;;5053018;28;20089;-79
2021/10/10 11:26:10;;;;;;;66.05;40.78;;;15.10;99.90;;;;;;5052481;28;20033;-79
2021/10/10 11:28:49;;;;;;;74.55;41.90;;;15.10;99.90;;;;;;5051608;28;20025;-80
2021/10/10 11:31:24;;;;;;;70.95;42.55;;;15.10;99.90;;;;;;5051019;28;20027;-80
2021/10/10 11:33:56;;;;;;;73.45;42.85;;;15.20;99.90;;;;;;5050844;28;20107;-79
2021/10/10 11:36:40;;;;;;;72.35;43.15;;;15.30;99.90;;;;;;5051455;28;20021;-78
2021/10/10 11:39:13;;;;;;;77.53;41.85;;;15.40;99.90;;;;;;5052386;28;20054;-81
2021/10/10 11:41:44;;;;;;;70.60;43.13;;;15.50;99.90;;;;;;5052172;28;20025;-78
2021/10/10 11:44:12;;;;;;;80.35;46.63;;;15.60;99.90;;;;;;5052299;28;20029;-79
2021/10/10 11:46:49;;;;;;;67.15;42.05;;;15.60;99.90;;;;;;5052827;28;20032;-80
2021/10/10 11:49:32;;;;;;;67.32;43.08;;;15.70;99.90;;;;;;5054400;28;20029;-79
2021/10/10 11:52:05;;;;;;;72.05;43.40;;;15.70;99.90;;;;;;5050032;28;20024;-79
2021/10/10 11:54:39;;;;;;;70.78;42.72;;;15.70;99.90;;;;;;5046969;28;20025;-79
2021/10/10 11:57:09;;;;;;;69.00;42.35;;;15.70;99.90;;;;;;5035354;28;20028;-79
2021/10/10 11:59:55;;;;;;;72.60;43.55;;;15.70;99.90;;;;;;5048188;28;20021;-79
2021/10/10 12:02:21;;;;;;;64.03;39.83;;;15.60;99.90;;;;;;5035266;28;20033;-79
2021/10/10 12:04:47;;;;;;;68.22;41.47;;;15.70;99.90;;;;;;5046287;28;20033;-81
2021/10/10 12:07:13;;;;;;;62.88;40.65;;;15.80;99.90;;;;;;5055771;28;20028;-78
2021/10/10 12:09:49;;;;;;;57.90;37.50;;;15.80;99.90;;;;;;5053713;28;20060;-78
2021/10/10 12:12:24;;;;;;;63.92;39.40;;;15.70;99.90;;;;;;5055393;28;20102;-82
2021/10/10 12:14:54;;;;;;;60.88;37.55;;;15.80;99.90;;;;;;5056609;28;20397;-81
2021/10/10 12:17:43;;;;;;;57.75;33.65;;;15.90;99.90;;;;;;5055106;28;20029;-81
2021/10/10 12:20:16;;;;;;;60.08;36.80;;;16.10;99.90;;;;;;5056671;28;20037;-83
2021/10/10 12:22:53;;;;;;;59.75;35.17;;;16.20;99.90;;;;;;5056662;28;20040;-83
2021/10/10 12:25:30;;;;;;;55.60;35.83;;;16.40;99.90;;;;;;5057564;28;20075;-80
2021/10/10 12:28:03;;;;;;;56.80;36.50;;;16.50;99.90;;;;;;5057134;28;20103;-81
2021/10/10 12:30:41;;;;;;;55.88;36.80;;;16.50;99.90;;;;;;5062132;28;20024;-82
2021/10/10 12:33:25;;;;;;;59.40;37.90;;;16.40;99.90;;;;;;5060773;28;20025;-81
2021/10/10 12:35:52;;;;;;;59.38;37.33;;;16.20;99.90;;;;;;5057921;28;20491;-82
2021/10/10 12:38:28;;;;;;;56.40;35.80;;;16.10;99.90;;;;;;5055742;28;20072;-82
2021/10/10 12:40:54;;;;;;;50.38;33.22;;;15.90;99.90;;;;;;5057866;28;20037;-81
2021/10/10 12:43:36;;;;;;;53.03;34.47;;;15.80;99.90;;;;;;5056660;28;20354;-80
2021/10/10 12:46:02;;;;;;;53.92;33.75;;;16.00;99.90;;;;;;5057410;28;20040;-81
2021/10/10 12:48:28;;;;;;;50.58;31.30;;;16.10;99.90;;;;;;5057520;28;20021;-82
2021/10/10 12:50:54;;;;;;;48.75;31.92;;;16.20;99.90;;;;;;5056772;28;20029;-81